sensor_id;sensor_type;location;lat;lon;timestamp;temperature;humidity
19248;DHT22;9758;48.640;8.148;2023-05-23T00:00:17;20.20;51.50
19248;DHT22;9758;48.640;8.148;2023-05-23T00:02:44;20.20;51.60
19248;DHT22;9758;48.640;8.148;2023-05-23T00:05:12;20.10;51.60
19248;DHT22;9758;48.640;8.148;2023-05-23T00:07:42;20.10;51.60
19248;DHT22;9758;48.640;8.148;2023-05-23T00:10:11;20.10;51.60
19248;DHT22;9758;48.640;8.148;2023-05-23T00:12:38;20.10;51.70
19248;DHT22;9758;48.640;8.148;2023-05-23T00:15:07;20.10;51.70
19248;DHT22;9758;48.640;8.148;2023-05-23T00:17:35;20.00;51.60
19248;DHT22;9758;48.640;8.148;2023-05-23T00:20:04;20.00;51.60
19248;DHT22;9758;48.640;8.148;2023-05-23T00:22:34;20.00;51.70
19248;DHT22;9758;48.640;8.148;2023-05-23T00:25:00;20.00;51.70
19248;DHT22;9758;48.640;8.148;2023-05-23T00:27:29;20.00;51.70
19248;DHT22;9758;48.640;8.148;2023-05-23T00:29:56;20.00;51.70
19248;DHT22;9758;48.640;8.148;2023-05-23T00:32:22;20.00;51.80
19248;DHT22;9758;48.640;8.148;2023-05-23T00:34:49;20.00;51.80
19248;DHT22;9758;48.640;8.148;2023-05-23T00:37:18;19.90;51.80
19248;DHT22;9758;48.640;8.148;2023-05-23T00:39:46;19.90;51.80
19248;DHT22;9758;48.640;8.148;2023-05-23T00:42:13;19.90;51.80
19248;DHT22;9758;48.640;8.148;2023-05-23T00:44:42;19.90;51.80
19248;DHT22;9758;48.640;8.148;2023-05-23T00:47:09;19.90;51.80
19248;DHT22;9758;48.640;8.148;2023-05-23T00:49:38;19.80;51.80
19248;DHT22;9758;48.640;8.148;2023-05-23T00:52:06;19.80;51.80
19248;DHT22;9758;48.640;8.148;2023-05-23T00:54:33;19.80;51.90
19248;DHT22;9758;48.640;8.148;2023-05-23T00:57:02;19.80;51.90
19248;DHT22;9758;48.640;8.148;2023-05-23T00:59:29;19.80;52.00
19248;DHT22;9758;48.640;8.148;2023-05-23T01:01:58;19.70;52.00
19248;DHT22;9758;48.640;8.148;2023-05-23T01:04:26;19.70;52.00
19248;DHT22;9758;48.640;8.148;2023-05-23T01:06:53;19.70;52.00
19248;DHT22;9758;48.640;8.148;2023-05-23T01:09:20;19.60;52.00
19248;DHT22;9758;48.640;8.148;2023-05-23T01:11:57;19.60;52.10
19248;DHT22;9758;48.640;8.148;2023-05-23T01:14:31;19.60;52.20
19248;DHT22;9758;48.640;8.148;2023-05-23T01:17:06;19.60;52.20
19248;DHT22;9758;48.640;8.148;2023-05-23T01:19:56;19.60;52.30
19248;DHT22;9758;48.640;8.148;2023-05-23T01:22:40;19.60;52.40
19248;DHT22;9758;48.640;8.148;2023-05-23T01:25:27;19.70;52.40
19248;DHT22;9758;48.640;8.148;2023-05-23T01:27:59;19.70;52.40
19248;DHT22;9758;48.640;8.148;2023-05-23T01:30:30;19.70;52.40
19248;DHT22;9758;48.640;8.148;2023-05-23T01:32:58;19.70;52.40
19248;DHT22;9758;48.640;8.148;2023-05-23T01:35:26;19.70;52.40
19248;DHT22;9758;48.640;8.148;2023-05-23T01:37:53;19.80;52.40
19248;DHT22;9758;48.640;8.148;2023-05-23T01:40:20;19.80;52.40
19248;DHT22;9758;48.640;8.148;2023-05-23T01:42:47;19.80;52.40
19248;DHT22;9758;48.640;8.148;2023-05-23T01:45:16;19.80;52.50
19248;DHT22;9758;48.640;8.148;2023-05-23T01:47:44;19.90;52.50
19248;DHT22;9758;48.640;8.148;2023-05-23T01:50:12;19.90;52.50
19248;DHT22;9758;48.640;8.148;2023-05-23T01:52:39;19.90;52.50
19248;DHT22;9758;48.640;8.148;2023-05-23T01:55:06;19.90;52.50
19248;DHT22;9758;48.640;8.148;2023-05-23T01:57:36;19.90;52.50
19248;DHT22;9758;48.640;8.148;2023-05-23T02:00:05;19.90;52.50
19248;DHT22;9758;48.640;8.148;2023-05-23T02:02:33;19.90;52.50
19248;DHT22;9758;48.640;8.148;2023-05-23T02:05:00;19.90;52.50
19248;DHT22;9758;48.640;8.148;2023-05-23T02:07:27;19.90;52.50
19248;DHT22;9758;48.640;8.148;2023-05-23T02:09:53;19.90;52.50
19248;DHT22;9758;48.640;8.148;2023-05-23T02:12:20;20.00;52.60
19248;DHT22;9758;48.640;8.148;2023-05-23T02:14:48;19.90;52.60
19248;DHT22;9758;48.640;8.148;2023-05-23T02:17:14;19.90;52.60
19248;DHT22;9758;48.640;8.148;2023-05-23T02:19:42;20.00;52.70
19248;DHT22;9758;48.640;8.148;2023-05-23T02:22:09;20.00;52.70
19248;DHT22;9758;48.640;8.148;2023-05-23T02:24:36;20.00;52.70
19248;DHT22;9758;48.640;8.148;2023-05-23T02:27:03;20.00;52.70
19248;DHT22;9758;48.640;8.148;2023-05-23T02:29:30;20.00;52.70
19248;DHT22;9758;48.640;8.148;2023-05-23T02:31:56;20.00;52.70
19248;DHT22;9758;48.640;8.148;2023-05-23T02:34:23;20.00;52.70
19248;DHT22;9758;48.640;8.148;2023-05-23T02:36:52;20.00;52.70
19248;DHT22;9758;48.640;8.148;2023-05-23T02:39:18;20.00;52.80
19248;DHT22;9758;48.640;8.148;2023-05-23T02:41:45;20.00;52.80
19248;DHT22;9758;48.640;8.148;2023-05-23T02:44:12;20.00;52.80
19248;DHT22;9758;48.640;8.148;2023-05-23T02:46:38;20.00;52.80
19248;DHT22;9758;48.640;8.148;2023-05-23T02:49:05;20.00;52.80
19248;DHT22;9758;48.640;8.148;2023-05-23T02:51:32;20.00;52.80
19248;DHT22;9758;48.640;8.148;2023-05-23T02:54:00;20.00;52.80
19248;DHT22;9758;48.640;8.148;2023-05-23T02:56:27;20.00;52.80
19248;DHT22;9758;48.640;8.148;2023-05-23T02:58:53;20.00;52.80
19248;DHT22;9758;48.640;8.148;2023-05-23T03:01:20;20.10;52.90
19248;DHT22;9758;48.640;8.148;2023-05-23T03:03:47;20.00;52.80
19248;DHT22;9758;48.640;8.148;2023-05-23T03:06:14;20.00;52.90
19248;DHT22;9758;48.640;8.148;2023-05-23T03:08:41;20.00;52.90
19248;DHT22;9758;48.640;8.148;2023-05-23T03:11:10;20.00;52.90
19248;DHT22;9758;48.640;8.148;2023-05-23T03:13:36;20.00;53.00
19248;DHT22;9758;48.640;8.148;2023-05-23T03:16:03;20.00;53.00
19248;DHT22;9758;48.640;8.148;2023-05-23T03:18:30;20.00;53.00
19248;DHT22;9758;48.640;8.148;2023-05-23T03:20:57;20.00;53.00
19248;DHT22;9758;48.640;8.148;2023-05-23T03:23:23;20.00;53.00
19248;DHT22;9758;48.640;8.148;2023-05-23T03:25:50;20.00;53.00
19248;DHT22;9758;48.640;8.148;2023-05-23T03:28:18;20.00;53.10
19248;DHT22;9758;48.640;8.148;2023-05-23T03:30:45;20.00;53.10
19248;DHT22;9758;48.640;8.148;2023-05-23T03:33:12;20.00;53.10
19248;DHT22;9758;48.640;8.148;2023-05-23T03:35:38;20.00;53.10
19248;DHT22;9758;48.640;8.148;2023-05-23T03:38:06;20.00;53.10
19248;DHT22;9758;48.640;8.148;2023-05-23T03:40:32;20.00;53.10
19248;DHT22;9758;48.640;8.148;2023-05-23T03:43:03;20.10;53.30
19248;DHT22;9758;48.640;8.148;2023-05-23T03:45:31;20.00;53.20
19248;DHT22;9758;48.640;8.148;2023-05-23T03:47:58;20.00;53.80
19248;DHT22;9758;48.640;8.148;2023-05-23T03:50:25;20.00;53.20
19248;DHT22;9758;48.640;8.148;2023-05-23T03:52:52;20.10;53.30
19248;DHT22;9758;48.640;8.148;2023-05-23T03:55:19;20.00;53.20
19248;DHT22;9758;48.640;8.148;2023-05-23T03:57:48;20.10;53.30
19248;DHT22;9758;48.640;8.148;2023-05-23T04:00:15;20.00;53.20
19248;DHT22;9758;48.640;8.148;2023-05-23T04:02:45;20.00;53.30
19248;DHT22;9758;48.640;8.148;2023-05-23T04:05:12;20.10;53.30
19248;DHT22;9758;48.640;8.148;2023-05-23T04:07:38;20.00;53.30
19248;DHT22;9758;48.640;8.148;2023-05-23T04:10:07;20.10;53.30
19248;DHT22;9758;48.640;8.148;2023-05-23T04:12:34;20.10;53.40
19248;DHT22;9758;48.640;8.148;2023-05-23T04:15:00;20.10;53.40
19248;DHT22;9758;48.640;8.148;2023-05-23T04:17:28;20.10;53.40
19248;DHT22;9758;48.640;8.148;2023-05-23T04:19:57;20.10;53.40
19248;DHT22;9758;48.640;8.148;2023-05-23T04:22:24;20.10;53.40
19248;DHT22;9758;48.640;8.148;2023-05-23T04:24:50;20.10;53.40
19248;DHT22;9758;48.640;8.148;2023-05-23T04:27:17;20.10;53.40
19248;DHT22;9758;48.640;8.148;2023-05-23T04:29:44;20.10;53.40
19248;DHT22;9758;48.640;8.148;2023-05-23T04:32:11;20.10;53.40
19248;DHT22;9758;48.640;8.148;2023-05-23T04:34:39;20.10;53.50
19248;DHT22;9758;48.640;8.148;2023-05-23T04:37:08;20.10;53.50
19248;DHT22;9758;48.640;8.148;2023-05-23T04:39:34;20.10;53.50
19248;DHT22;9758;48.640;8.148;2023-05-23T04:42:01;20.10;53.50
19248;DHT22;9758;48.640;8.148;2023-05-23T04:44:28;20.10;53.50
19248;DHT22;9758;48.640;8.148;2023-05-23T04:46:55;20.10;53.50
19248;DHT22;9758;48.640;8.148;2023-05-23T04:49:21;20.10;53.60
19248;DHT22;9758;48.640;8.148;2023-05-23T04:51:48;20.10;53.60
19248;DHT22;9758;48.640;8.148;2023-05-23T04:54:16;20.10;53.60
19248;DHT22;9758;48.640;8.148;2023-05-23T04:56:43;20.10;53.60
19248;DHT22;9758;48.640;8.148;2023-05-23T04:59:10;20.10;53.60
19248;DHT22;9758;48.640;8.148;2023-05-23T05:01:37;20.10;53.60
19248;DHT22;9758;48.640;8.148;2023-05-23T05:04:05;20.10;53.60
19248;DHT22;9758;48.640;8.148;2023-05-23T05:06:31;20.10;53.70
19248;DHT22;9758;48.640;8.148;2023-05-23T05:08:58;20.00;53.60
19248;DHT22;9758;48.640;8.148;2023-05-23T05:11:26;20.00;53.70
19248;DHT22;9758;48.640;8.148;2023-05-23T05:13:53;20.00;53.80
19248;DHT22;9758;48.640;8.148;2023-05-23T05:16:20;20.00;53.80
19248;DHT22;9758;48.640;8.148;2023-05-23T05:18:47;20.00;53.80
19248;DHT22;9758;48.640;8.148;2023-05-23T05:21:14;20.00;53.80
19248;DHT22;9758;48.640;8.148;2023-05-23T05:23:40;20.00;53.80
19248;DHT22;9758;48.640;8.148;2023-05-23T05:26:08;20.10;53.80
19248;DHT22;9758;48.640;8.148;2023-05-23T05:28:36;20.10;53.80
19248;DHT22;9758;48.640;8.148;2023-05-23T05:31:02;20.10;53.80
19248;DHT22;9758;48.640;8.148;2023-05-23T05:33:29;20.10;53.80
19248;DHT22;9758;48.640;8.148;2023-05-23T05:36:00;20.20;53.90
19248;DHT22;9758;48.640;8.148;2023-05-23T05:38:27;20.20;53.90
19248;DHT22;9758;48.640;8.148;2023-05-23T05:40:54;20.20;53.80
19248;DHT22;9758;48.640;8.148;2023-05-23T05:43:20;20.30;53.90
19248;DHT22;9758;48.640;8.148;2023-05-23T05:45:48;20.30;53.90
19248;DHT22;9758;48.640;8.148;2023-05-23T05:48:15;20.40;53.80
19248;DHT22;9758;48.640;8.148;2023-05-23T05:50:42;20.50;53.90
19248;DHT22;9758;48.640;8.148;2023-05-23T05:53:10;20.50;53.80
19248;DHT22;9758;48.640;8.148;2023-05-23T05:55:37;20.50;53.70
19248;DHT22;9758;48.640;8.148;2023-05-23T05:58:04;20.60;53.80
19248;DHT22;9758;48.640;8.148;2023-05-23T06:00:57;20.60;53.90
19248;DHT22;9758;48.640;8.148;2023-05-23T06:03:24;20.60;53.90
19248;DHT22;9758;48.640;8.148;2023-05-23T06:05:51;20.60;53.90
19248;DHT22;9758;48.640;8.148;2023-05-23T06:08:18;20.60;53.80
19248;DHT22;9758;48.640;8.148;2023-05-23T06:10:45;20.70;53.80
19248;DHT22;9758;48.640;8.148;2023-05-23T06:13:11;20.70;53.80
19248;DHT22;9758;48.640;8.148;2023-05-23T06:15:38;20.70;53.70
19248;DHT22;9758;48.640;8.148;2023-05-23T06:18:07;20.70;53.80
19248;DHT22;9758;48.640;8.148;2023-05-23T06:20:33;20.70;53.80
19248;DHT22;9758;48.640;8.148;2023-05-23T06:23:00;20.80;53.80
19248;DHT22;9758;48.640;8.148;2023-05-23T06:25:29;20.80;53.70
19248;DHT22;9758;48.640;8.148;2023-05-23T06:27:56;20.90;53.70
19248;DHT22;9758;48.640;8.148;2023-05-23T06:30:23;20.90;53.70
19248;DHT22;9758;48.640;8.148;2023-05-23T06:32:50;20.90;53.60
19248;DHT22;9758;48.640;8.148;2023-05-23T06:35:19;20.90;53.60
19248;DHT22;9758;48.640;8.148;2023-05-23T06:37:45;20.90;53.60
19248;DHT22;9758;48.640;8.148;2023-05-23T06:40:13;20.90;53.60
19248;DHT22;9758;48.640;8.148;2023-05-23T06:42:40;20.90;53.50
19248;DHT22;9758;48.640;8.148;2023-05-23T06:45:07;20.90;53.50
19248;DHT22;9758;48.640;8.148;2023-05-23T06:47:34;20.90;53.50
19248;DHT22;9758;48.640;8.148;2023-05-23T06:50:01;20.90;53.50
19248;DHT22;9758;48.640;8.148;2023-05-23T06:52:29;20.90;53.50
19248;DHT22;9758;48.640;8.148;2023-05-23T06:54:56;21.00;53.50
19248;DHT22;9758;48.640;8.148;2023-05-23T06:57:23;21.00;53.40
19248;DHT22;9758;48.640;8.148;2023-05-23T06:59:49;21.00;53.40
19248;DHT22;9758;48.640;8.148;2023-05-23T07:02:16;21.00;53.30
19248;DHT22;9758;48.640;8.148;2023-05-23T07:04:43;21.10;53.30
19248;DHT22;9758;48.640;8.148;2023-05-23T07:07:10;21.10;53.30
19248;DHT22;9758;48.640;8.148;2023-05-23T07:09:38;21.20;53.20
19248;DHT22;9758;48.640;8.148;2023-05-23T07:12:05;21.20;53.10
19248;DHT22;9758;48.640;8.148;2023-05-23T07:14:32;21.30;53.10
19248;DHT22;9758;48.640;8.148;2023-05-23T07:17:00;21.30;53.00
19248;DHT22;9758;48.640;8.148;2023-05-23T07:19:26;21.30;53.00
19248;DHT22;9758;48.640;8.148;2023-05-23T07:21:53;21.20;52.90
19248;DHT22;9758;48.640;8.148;2023-05-23T07:24:20;21.20;52.80
19248;DHT22;9758;48.640;8.148;2023-05-23T07:26:48;21.10;52.90
19248;DHT22;9758;48.640;8.148;2023-05-23T07:29:15;21.10;53.00
19248;DHT22;9758;48.640;8.148;2023-05-23T07:31:42;21.10;53.00
19248;DHT22;9758;48.640;8.148;2023-05-23T07:34:08;21.10;53.00
19248;DHT22;9758;48.640;8.148;2023-05-23T07:36:35;21.10;53.00
19248;DHT22;9758;48.640;8.148;2023-05-23T07:39:05;21.10;52.90
19248;DHT22;9758;48.640;8.148;2023-05-23T07:41:31;21.20;53.00
19248;DHT22;9758;48.640;8.148;2023-05-23T07:44:00;21.30;53.10
19248;DHT22;9758;48.640;8.148;2023-05-23T07:46:29;21.40;52.90
19248;DHT22;9758;48.640;8.148;2023-05-23T07:48:56;21.60;52.90
19248;DHT22;9758;48.640;8.148;2023-05-23T07:51:23;21.70;52.70
19248;DHT22;9758;48.640;8.148;2023-05-23T07:53:50;21.80;52.70
19248;DHT22;9758;48.640;8.148;2023-05-23T07:56:17;22.00;52.70
19248;DHT22;9758;48.640;8.148;2023-05-23T07:58:44;22.00;52.30
19248;DHT22;9758;48.640;8.148;2023-05-23T08:01:12;22.10;52.00
19248;DHT22;9758;48.640;8.148;2023-05-23T08:03:39;22.00;52.00
19248;DHT22;9758;48.640;8.148;2023-05-23T08:06:05;21.90;52.20
19248;DHT22;9758;48.640;8.148;2023-05-23T08:08:33;21.90;52.20
19248;DHT22;9758;48.640;8.148;2023-05-23T08:11:01;21.90;52.10
19248;DHT22;9758;48.640;8.148;2023-05-23T08:13:29;21.90;52.20
19248;DHT22;9758;48.640;8.148;2023-05-23T08:15:55;21.80;52.10
19248;DHT22;9758;48.640;8.148;2023-05-23T08:18:24;21.80;52.30
19248;DHT22;9758;48.640;8.148;2023-05-23T08:20:51;21.90;52.30
19248;DHT22;9758;48.640;8.148;2023-05-23T08:23:17;21.90;52.00
19248;DHT22;9758;48.640;8.148;2023-05-23T08:25:44;21.90;52.00
19248;DHT22;9758;48.640;8.148;2023-05-23T08:28:11;21.90;52.10
19248;DHT22;9758;48.640;8.148;2023-05-23T08:30:38;22.00;52.20
19248;DHT22;9758;48.640;8.148;2023-05-23T08:33:04;22.00;51.90
19248;DHT22;9758;48.640;8.148;2023-05-23T08:35:33;22.10;52.20
19248;DHT22;9758;48.640;8.148;2023-05-23T08:38:01;22.20;52.30
19248;DHT22;9758;48.640;8.148;2023-05-23T08:40:30;22.30;51.90
19248;DHT22;9758;48.640;8.148;2023-05-23T08:42:57;22.40;51.60
19248;DHT22;9758;48.640;8.148;2023-05-23T08:45:24;22.40;51.80
19248;DHT22;9758;48.640;8.148;2023-05-23T08:47:51;22.50;51.80
19248;DHT22;9758;48.640;8.148;2023-05-23T08:50:20;22.50;51.80
19248;DHT22;9758;48.640;8.148;2023-05-23T08:52:53;22.60;51.70
19248;DHT22;9758;48.640;8.148;2023-05-23T08:55:21;22.80;51.70
19248;DHT22;9758;48.640;8.148;2023-05-23T08:57:49;23.00;51.60
19248;DHT22;9758;48.640;8.148;2023-05-23T09:00:16;23.20;51.50
19248;DHT22;9758;48.640;8.148;2023-05-23T09:02:45;23.40;51.00
19248;DHT22;9758;48.640;8.148;2023-05-23T09:05:12;23.50;51.10
19248;DHT22;9758;48.640;8.148;2023-05-23T09:07:39;23.60;51.10
19248;DHT22;9758;48.640;8.148;2023-05-23T09:10:09;23.80;50.90
19248;DHT22;9758;48.640;8.148;2023-05-23T09:12:36;23.90;50.80
19248;DHT22;9758;48.640;8.148;2023-05-23T09:15:03;24.00;50.30
19248;DHT22;9758;48.640;8.148;2023-05-23T09:17:31;23.90;50.20
19248;DHT22;9758;48.640;8.148;2023-05-23T09:19:58;23.80;50.50
19248;DHT22;9758;48.640;8.148;2023-05-23T09:22:25;23.80;50.80
19248;DHT22;9758;48.640;8.148;2023-05-23T09:24:54;23.90;50.80
19248;DHT22;9758;48.640;8.148;2023-05-23T09:27:23;24.10;50.50
19248;DHT22;9758;48.640;8.148;2023-05-23T09:29:49;24.20;50.50
19248;DHT22;9758;48.640;8.148;2023-05-23T09:32:17;24.20;49.90
19248;DHT22;9758;48.640;8.148;2023-05-23T09:34:55;24.20;50.20
19248;DHT22;9758;48.640;8.148;2023-05-23T09:37:24;24.20;50.20
19248;DHT22;9758;48.640;8.148;2023-05-23T09:39:51;24.20;50.00
19248;DHT22;9758;48.640;8.148;2023-05-23T09:42:20;24.20;50.00
19248;DHT22;9758;48.640;8.148;2023-05-23T09:44:49;24.10;49.90
19248;DHT22;9758;48.640;8.148;2023-05-23T09:47:15;24.20;50.00
19248;DHT22;9758;48.640;8.148;2023-05-23T09:49:42;24.10;49.80
19248;DHT22;9758;48.640;8.148;2023-05-23T09:52:09;24.10;49.60
19248;DHT22;9758;48.640;8.148;2023-05-23T09:54:36;24.00;49.40
19248;DHT22;9758;48.640;8.148;2023-05-23T09:57:06;23.80;49.90
19248;DHT22;9758;48.640;8.148;2023-05-23T09:59:38;23.70;50.10
19248;DHT22;9758;48.640;8.148;2023-05-23T10:02:10;23.80;50.20
19248;DHT22;9758;48.640;8.148;2023-05-23T10:04:38;23.80;49.90
19248;DHT22;9758;48.640;8.148;2023-05-23T10:07:11;23.70;49.80
19248;DHT22;9758;48.640;8.148;2023-05-23T10:09:41;23.70;49.90
19248;DHT22;9758;48.640;8.148;2023-05-23T10:12:38;23.50;49.60
19248;DHT22;9758;48.640;8.148;2023-05-23T10:15:10;23.30;50.10
19248;DHT22;9758;48.640;8.148;2023-05-23T10:17:51;23.20;50.00
19248;DHT22;9758;48.640;8.148;2023-05-23T10:20:23;23.00;50.00
19248;DHT22;9758;48.640;8.148;2023-05-23T10:22:52;22.90;50.20
19248;DHT22;9758;48.640;8.148;2023-05-23T10:25:19;22.80;50.50
19248;DHT22;9758;48.640;8.148;2023-05-23T10:27:47;22.80;50.50
19248;DHT22;9758;48.640;8.148;2023-05-23T10:30:15;22.80;50.60
19248;DHT22;9758;48.640;8.148;2023-05-23T10:32:44;22.90;50.50
19248;DHT22;9758;48.640;8.148;2023-05-23T10:35:16;23.00;50.60
19248;DHT22;9758;48.640;8.148;2023-05-23T10:37:51;23.10;50.70
19248;DHT22;9758;48.640;8.148;2023-05-23T10:40:30;23.20;50.30
19248;DHT22;9758;48.640;8.148;2023-05-23T10:43:03;23.30;50.30
19248;DHT22;9758;48.640;8.148;2023-05-23T10:45:39;23.40;50.10
19248;DHT22;9758;48.640;8.148;2023-05-23T10:48:19;23.40;49.90
19248;DHT22;9758;48.640;8.148;2023-05-23T10:51:01;23.40;49.40
19248;DHT22;9758;48.640;8.148;2023-05-23T10:53:30;23.40;50.00
19248;DHT22;9758;48.640;8.148;2023-05-23T10:55:56;23.30;50.00
19248;DHT22;9758;48.640;8.148;2023-05-23T10:58:23;23.40;50.20
19248;DHT22;9758;48.640;8.148;2023-05-23T11:00:52;23.50;50.10
19248;DHT22;9758;48.640;8.148;2023-05-23T11:03:34;23.70;50.00
19248;DHT22;9758;48.640;8.148;2023-05-23T11:06:01;23.80;49.80
19248;DHT22;9758;48.640;8.148;2023-05-23T11:08:36;23.90;49.70
19248;DHT22;9758;48.640;8.148;2023-05-23T11:11:04;24.00;49.60
19248;DHT22;9758;48.640;8.148;2023-05-23T11:13:54;24.00;49.00
19248;DHT22;9758;48.640;8.148;2023-05-23T11:16:25;23.80;49.30
19248;DHT22;9758;48.640;8.148;2023-05-23T11:21:43;23.90;49.60
19248;DHT22;9758;48.640;8.148;2023-05-23T11:24:11;24.00;49.30
19248;DHT22;9758;48.640;8.148;2023-05-23T11:26:37;24.10;49.10
19248;DHT22;9758;48.640;8.148;2023-05-23T11:29:08;24.00;49.10
19248;DHT22;9758;48.640;8.148;2023-05-23T11:31:36;24.00;49.30
19248;DHT22;9758;48.640;8.148;2023-05-23T11:34:06;24.10;50.20
19248;DHT22;9758;48.640;8.148;2023-05-23T11:36:33;24.30;49.40
19248;DHT22;9758;48.640;8.148;2023-05-23T11:39:01;24.40;49.00
19248;DHT22;9758;48.640;8.148;2023-05-23T11:41:29;24.40;49.00
19248;DHT22;9758;48.640;8.148;2023-05-23T11:43:57;24.40;49.10
19248;DHT22;9758;48.640;8.148;2023-05-23T11:46:26;24.50;49.00
19248;DHT22;9758;48.640;8.148;2023-05-23T11:48:52;24.60;48.80
19248;DHT22;9758;48.640;8.148;2023-05-23T11:51:21;24.70;48.90
19248;DHT22;9758;48.640;8.148;2023-05-23T11:53:48;24.90;48.80
19248;DHT22;9758;48.640;8.148;2023-05-23T11:56:15;25.00;48.30
19248;DHT22;9758;48.640;8.148;2023-05-23T11:58:42;24.90;48.20
19248;DHT22;9758;48.640;8.148;2023-05-23T12:01:11;24.90;48.20
19248;DHT22;9758;48.640;8.148;2023-05-23T12:03:44;24.80;47.90
19248;DHT22;9758;48.640;8.148;2023-05-23T12:06:13;24.60;48.20
19248;DHT22;9758;48.640;8.148;2023-05-23T12:08:43;24.40;48.40
19248;DHT22;9758;48.640;8.148;2023-05-23T12:11:10;24.40;48.70
19248;DHT22;9758;48.640;8.148;2023-05-23T12:13:40;24.40;48.50
19248;DHT22;9758;48.640;8.148;2023-05-23T12:16:07;24.40;48.80
19248;DHT22;9758;48.640;8.148;2023-05-23T12:18:36;24.60;48.80
19248;DHT22;9758;48.640;8.148;2023-05-23T12:21:04;24.70;48.60
19248;DHT22;9758;48.640;8.148;2023-05-23T12:23:32;24.80;48.60
19248;DHT22;9758;48.640;8.148;2023-05-23T12:26:03;25.00;48.50
19248;DHT22;9758;48.640;8.148;2023-05-23T12:28:35;25.20;48.10
19248;DHT22;9758;48.640;8.148;2023-05-23T12:31:08;25.30;48.00
19248;DHT22;9758;48.640;8.148;2023-05-23T12:33:37;25.30;48.10
19248;DHT22;9758;48.640;8.148;2023-05-23T12:36:05;25.40;47.90
19248;DHT22;9758;48.640;8.148;2023-05-23T12:38:32;25.50;47.60
19248;DHT22;9758;48.640;8.148;2023-05-23T12:41:13;25.40;47.80
19248;DHT22;9758;48.640;8.148;2023-05-23T12:43:48;25.50;47.60
19248;DHT22;9758;48.640;8.148;2023-05-23T12:46:15;25.40;47.60
19248;DHT22;9758;48.640;8.148;2023-05-23T12:48:42;25.40;47.50
19248;DHT22;9758;48.640;8.148;2023-05-23T12:51:09;25.30;47.60
19248;DHT22;9758;48.640;8.148;2023-05-23T12:53:36;25.20;47.50
19248;DHT22;9758;48.640;8.148;2023-05-23T12:56:03;25.10;47.70
19248;DHT22;9758;48.640;8.148;2023-05-23T12:58:32;25.00;47.80
19248;DHT22;9758;48.640;8.148;2023-05-23T13:01:00;25.00;47.80
19248;DHT22;9758;48.640;8.148;2023-05-23T13:03:27;25.10;47.90
19248;DHT22;9758;48.640;8.148;2023-05-23T13:05:55;25.10;47.80
19248;DHT22;9758;48.640;8.148;2023-05-23T13:08:22;25.20;47.90
19248;DHT22;9758;48.640;8.148;2023-05-23T13:10:49;25.30;47.80
19248;DHT22;9758;48.640;8.148;2023-05-23T13:13:16;25.40;47.80
19248;DHT22;9758;48.640;8.148;2023-05-23T13:15:44;25.50;47.60
19248;DHT22;9758;48.640;8.148;2023-05-23T13:18:12;25.60;47.60
19248;DHT22;9758;48.640;8.148;2023-05-23T13:20:38;25.60;47.40
19248;DHT22;9758;48.640;8.148;2023-05-23T13:23:06;25.60;47.20
19248;DHT22;9758;48.640;8.148;2023-05-23T13:25:44;25.70;47.40
19248;DHT22;9758;48.640;8.148;2023-05-23T13:28:11;25.70;47.40
19248;DHT22;9758;48.640;8.148;2023-05-23T13:30:38;25.70;47.10
19248;DHT22;9758;48.640;8.148;2023-05-23T13:33:06;25.70;47.20
19248;DHT22;9758;48.640;8.148;2023-05-23T13:35:33;25.70;46.80
19248;DHT22;9758;48.640;8.148;2023-05-23T13:38:00;25.60;47.10
19248;DHT22;9758;48.640;8.148;2023-05-23T13:40:27;25.50;47.20
19248;DHT22;9758;48.640;8.148;2023-05-23T13:42:53;25.60;47.40
19248;DHT22;9758;48.640;8.148;2023-05-23T13:45:20;25.70;47.50
19248;DHT22;9758;48.640;8.148;2023-05-23T13:47:47;25.90;47.40
19248;DHT22;9758;48.640;8.148;2023-05-23T13:50:16;26.00;47.10
19248;DHT22;9758;48.640;8.148;2023-05-23T13:52:42;26.10;46.80
19248;DHT22;9758;48.640;8.148;2023-05-23T13:55:10;26.00;46.60
19248;DHT22;9758;48.640;8.148;2023-05-23T13:57:36;25.90;46.70
19248;DHT22;9758;48.640;8.148;2023-05-23T14:00:04;25.90;47.00
19248;DHT22;9758;48.640;8.148;2023-05-23T14:02:33;25.90;46.60
19248;DHT22;9758;48.640;8.148;2023-05-23T14:05:00;25.70;46.20
19248;DHT22;9758;48.640;8.148;2023-05-23T14:07:28;25.60;46.60
19248;DHT22;9758;48.640;8.148;2023-05-23T14:09:55;25.60;46.90
19248;DHT22;9758;48.640;8.148;2023-05-23T14:12:22;25.50;46.90
19248;DHT22;9758;48.640;8.148;2023-05-23T14:14:48;25.50;46.80
19248;DHT22;9758;48.640;8.148;2023-05-23T14:17:15;25.40;46.50
19248;DHT22;9758;48.640;8.148;2023-05-23T14:19:42;25.30;46.70
19248;DHT22;9758;48.640;8.148;2023-05-23T14:22:09;25.30;46.90
19248;DHT22;9758;48.640;8.148;2023-05-23T14:24:37;25.20;47.00
19248;DHT22;9758;48.640;8.148;2023-05-23T14:27:04;25.30;46.80
19248;DHT22;9758;48.640;8.148;2023-05-23T14:29:31;25.30;46.90
19248;DHT22;9758;48.640;8.148;2023-05-23T14:31:58;25.30;46.80
19248;DHT22;9758;48.640;8.148;2023-05-23T14:34:25;25.30;46.70
19248;DHT22;9758;48.640;8.148;2023-05-23T14:36:52;25.20;46.60
19248;DHT22;9758;48.640;8.148;2023-05-23T14:39:19;25.20;47.00
19248;DHT22;9758;48.640;8.148;2023-05-23T14:41:48;25.20;47.10
19248;DHT22;9758;48.640;8.148;2023-05-23T14:44:15;25.30;47.00
19248;DHT22;9758;48.640;8.148;2023-05-23T14:46:41;25.30;46.80
19248;DHT22;9758;48.640;8.148;2023-05-23T14:49:12;25.40;46.80
19248;DHT22;9758;48.640;8.148;2023-05-23T14:51:39;25.40;46.70
19248;DHT22;9758;48.640;8.148;2023-05-23T14:54:07;25.40;46.70
19248;DHT22;9758;48.640;8.148;2023-05-23T14:56:35;25.50;46.80
19248;DHT22;9758;48.640;8.148;2023-05-23T14:59:04;25.60;46.80
19248;DHT22;9758;48.640;8.148;2023-05-23T15:01:31;25.70;46.60
19248;DHT22;9758;48.640;8.148;2023-05-23T15:03:57;25.80;46.80
19248;DHT22;9758;48.640;8.148;2023-05-23T15:06:24;26.00;46.80
19248;DHT22;9758;48.640;8.148;2023-05-23T15:08:51;26.20;46.80
19248;DHT22;9758;48.640;8.148;2023-05-23T15:11:18;26.40;46.60
19248;DHT22;9758;48.640;8.148;2023-05-23T15:13:45;26.60;46.50
19248;DHT22;9758;48.640;8.148;2023-05-23T15:16:15;26.80;46.20
19248;DHT22;9758;48.640;8.148;2023-05-23T15:18:42;27.00;46.20
19248;DHT22;9758;48.640;8.148;2023-05-23T15:21:11;27.20;46.40
19248;DHT22;9758;48.640;8.148;2023-05-23T15:23:48;27.50;46.60
19248;DHT22;9758;48.640;8.148;2023-05-23T15:26:15;27.90;46.40
19248;DHT22;9758;48.640;8.148;2023-05-23T15:28:41;28.30;46.00
19248;DHT22;9758;48.640;8.148;2023-05-23T15:31:08;28.40;45.50
19248;DHT22;9758;48.640;8.148;2023-05-23T15:33:36;28.40;45.10
19248;DHT22;9758;48.640;8.148;2023-05-23T15:36:03;28.30;45.00
19248;DHT22;9758;48.640;8.148;2023-05-23T15:38:30;28.10;44.80
19248;DHT22;9758;48.640;8.148;2023-05-23T15:40:57;27.90;45.00
19248;DHT22;9758;48.640;8.148;2023-05-23T15:43:24;27.80;45.30
19248;DHT22;9758;48.640;8.148;2023-05-23T15:45:51;27.90;45.70
19248;DHT22;9758;48.640;8.148;2023-05-23T15:48:18;28.30;46.50
19248;DHT22;9758;48.640;8.148;2023-05-23T15:50:46;29.10;46.80
19248;DHT22;9758;48.640;8.148;2023-05-23T15:53:13;30.20;46.50